createdAt,value
2018-09-09T00:00:18.427Z,2.10
2018-09-09T00:02:23.150Z,1.90
2018-09-09T00:04:28.672Z,2.00
2018-09-09T00:06:33.139Z,2.10
2018-09-09T00:08:37.622Z,1.90
2018-09-09T00:10:43.048Z,2.20
2018-09-09T00:12:49.936Z,2.30
2018-09-09T00:14:54.507Z,2.37
2018-09-09T00:17:01.262Z,1.83
2018-09-09T00:19:05.825Z,1.90
2018-09-09T00:21:11.060Z,2.10
2018-09-09T00:23:15.617Z,1.93
2018-09-09T00:25:20.116Z,1.90
2018-09-09T00:27:25.184Z,1.93
2018-09-09T00:29:30.020Z,2.63
2018-09-09T00:31:35.122Z,1.80
2018-09-09T00:33:43.762Z,1.50
2018-09-09T00:35:51.348Z,1.80
2018-09-09T00:37:55.955Z,1.60
2018-09-09T00:40:02.773Z,2.97
2018-09-09T00:42:09.210Z,1.90
2018-09-09T00:44:13.896Z,2.00
2018-09-09T00:46:19.134Z,2.00
2018-09-09T00:48:23.730Z,1.87
2018-09-09T00:50:34.354Z,1.80
2018-09-09T00:52:44.938Z,2.47
2018-09-09T00:54:50.114Z,2.20
2018-09-09T00:56:54.725Z,1.73
2018-09-09T00:58:59.538Z,2.20
2018-09-09T01:01:09.104Z,2.70
2018-09-09T01:03:13.942Z,2.80
2018-09-09T01:05:20.108Z,2.20
2018-09-09T01:07:24.786Z,2.07
2018-09-09T01:09:32.811Z,2.03
2018-09-09T01:11:37.418Z,2.50
2018-09-09T01:13:42.092Z,2.53
2018-09-09T01:15:46.839Z,1.60
2018-09-09T01:17:51.533Z,2.60
2018-09-09T01:19:56.198Z,2.03
2018-09-09T01:22:00.709Z,1.83
2018-09-09T01:24:05.375Z,3.17
2018-09-09T01:26:10.264Z,2.00
2018-09-09T01:28:16.933Z,1.83
2018-09-09T01:30:21.507Z,2.63
2018-09-09T01:32:26.319Z,2.53
2018-09-09T01:34:31.362Z,2.40
2018-09-09T01:36:35.711Z,2.30
2018-09-09T01:38:40.359Z,1.93
2018-09-09T01:40:44.880Z,1.80
2018-09-09T01:42:49.345Z,1.97
2018-09-09T01:44:53.828Z,2.37
2018-09-09T01:46:58.386Z,1.90
2018-09-09T01:49:03.081Z,2.57
2018-09-09T01:51:07.756Z,1.80
2018-09-09T01:53:13.033Z,2.40
2018-09-09T01:55:18.122Z,3.20
2018-09-09T01:57:23.114Z,2.33
2018-09-09T01:59:27.726Z,3.10
2018-09-09T02:01:32.948Z,2.13
2018-09-09T02:03:37.338Z,1.77
2018-09-09T02:05:47.670Z,3.20
2018-09-09T02:07:52.303Z,3.33
2018-09-09T02:09:57.198Z,2.07
2018-09-09T02:12:01.834Z,3.57
2018-09-09T02:14:08.417Z,2.43
2018-09-09T02:16:13.638Z,2.63
2018-09-09T02:18:18.363Z,3.90
2018-09-09T02:20:22.940Z,1.80
2018-09-09T02:22:27.582Z,2.97
2018-09-09T02:24:32.248Z,2.50
2018-09-09T02:26:37.043Z,3.30
2018-09-09T02:28:42.240Z,2.63
2018-09-09T02:30:47.553Z,4.67
2018-09-09T02:32:52.305Z,4.73
2018-09-09T02:34:56.854Z,5.03
2018-09-09T02:37:01.281Z,4.27
2018-09-09T02:39:12.326Z,6.07
2018-09-09T02:41:16.785Z,4.90
2018-09-09T02:43:21.454Z,3.67
2018-09-09T02:45:26.257Z,2.93
2018-09-09T02:47:30.931Z,5.33
2018-09-09T02:49:35.776Z,5.00
2018-09-09T02:51:41.634Z,5.90
2018-09-09T02:53:46.275Z,5.83
2018-09-09T02:55:51.139Z,5.17
2018-09-09T02:57:56.992Z,5.70
2018-09-09T03:00:01.798Z,4.90
2018-09-09T03:02:06.855Z,5.30
2018-09-09T03:04:12.073Z,5.00
2018-09-09T03:06:17.533Z,6.07
2018-09-09T03:08:22.774Z,5.37
2018-09-09T03:10:28.571Z,6.40
2018-09-09T03:12:33.885Z,4.63
2018-09-09T03:14:40.409Z,6.43
2018-09-09T03:16:45.135Z,6.60
2018-09-09T03:18:51.297Z,5.57
2018-09-09T03:20:56.886Z,4.20
2018-09-09T03:23:01.719Z,6.77
2018-09-09T03:25:07.327Z,4.87
2018-09-09T03:27:11.949Z,5.97
2018-09-09T03:29:17.173Z,7.07
2018-09-09T03:31:23.060Z,7.20
2018-09-09T03:33:28.091Z,6.17
2018-09-09T03:35:33.371Z,5.57
2018-09-09T03:37:37.794Z,6.77
2018-09-09T03:39:42.601Z,6.87
2018-09-09T03:41:47.206Z,5.53
2018-09-09T03:43:51.693Z,6.17
2018-09-09T03:45:56.373Z,6.93
2018-09-09T03:48:00.910Z,6.97
2018-09-09T03:50:06.740Z,6.10
2018-09-09T03:52:11.317Z,5.80
2018-09-09T03:54:16.428Z,6.63
2018-09-09T03:56:21.064Z,5.90
2018-09-09T03:58:25.740Z,6.50
2018-09-09T04:00:30.866Z,3.97
2018-09-09T04:02:35.917Z,6.50
2018-09-09T04:04:40.970Z,6.50
2018-09-09T04:06:46.265Z,7.10
2018-09-09T04:08:53.378Z,6.20
2018-09-09T04:10:58.171Z,6.40
2018-09-09T04:13:02.757Z,6.37
2018-09-09T04:15:07.054Z,5.20
2018-09-09T04:17:11.804Z,6.43
2018-09-09T04:19:16.281Z,6.70
2018-09-09T04:21:20.972Z,5.23
2018-09-09T04:23:25.442Z,7.20
2018-09-09T04:25:29.947Z,5.93
2018-09-09T04:27:35.045Z,5.37
2018-09-09T04:29:40.046Z,5.50
2018-09-09T04:31:44.837Z,5.90
2018-09-09T04:33:50.049Z,6.47
2018-09-09T04:35:57.167Z,6.30
2018-09-09T04:38:01.593Z,6.23
2018-09-09T04:40:06.368Z,7.30
2018-09-09T04:42:10.813Z,6.90
2018-09-09T04:44:16.071Z,7.40
2018-09-09T04:46:21.676Z,7.37
2018-09-09T04:50:59.854Z,7.03
2018-09-09T04:53:04.955Z,5.57
2018-09-09T04:55:09.640Z,6.97
2018-09-09T04:57:14.473Z,5.17
2018-09-09T04:59:18.860Z,6.30
2018-09-09T05:01:23.637Z,5.53
2018-09-09T05:03:28.288Z,6.13
2018-09-09T05:05:33.022Z,6.30
2018-09-09T05:07:38.096Z,5.03
2018-09-09T05:09:42.657Z,4.83
2018-09-09T05:11:47.731Z,4.27
2018-09-09T05:13:52.733Z,4.27
2018-09-09T05:15:57.365Z,6.00
2018-09-09T05:18:01.751Z,5.37
2018-09-09T05:20:07.125Z,5.58
2018-09-09T05:22:11.511Z,5.30
2018-09-09T05:24:16.021Z,5.93
2018-09-09T05:26:21.132Z,4.77
2018-09-09T05:28:25.700Z,4.07
2018-09-09T05:30:31.684Z,7.87
2018-09-09T05:32:37.298Z,7.73
2018-09-09T05:34:43.188Z,8.47
2018-09-09T05:36:48.067Z,4.57
2018-09-09T05:38:53.628Z,5.50
2018-09-09T05:40:58.478Z,7.43
2018-09-09T05:43:05.478Z,7.33
2018-09-09T05:45:10.003Z,9.53
2018-09-09T05:47:14.751Z,6.87
2018-09-09T05:49:19.515Z,6.20
2018-09-09T05:51:24.117Z,3.87
2018-09-09T05:53:29.016Z,7.97
2018-09-09T05:55:33.547Z,7.87
2018-09-09T05:57:38.100Z,7.07
2018-09-09T05:59:43.136Z,5.47
2018-09-09T06:01:47.488Z,6.33
2018-09-09T06:03:52.471Z,8.03
2018-09-09T06:05:57.375Z,5.43
2018-09-09T06:08:02.076Z,5.63
2018-09-09T06:10:07.626Z,6.80
2018-09-09T06:12:12.989Z,5.40
2018-09-09T06:14:17.534Z,9.47
2018-09-09T06:16:22.051Z,6.27
2018-09-09T06:18:26.466Z,8.57
2018-09-09T06:20:31.640Z,9.20
2018-09-09T06:22:36.019Z,8.10
2018-09-09T06:24:40.474Z,7.37
2018-09-09T06:26:46.474Z,8.33
2018-09-09T06:28:51.580Z,10.87
2018-09-09T06:30:56.745Z,11.00
2018-09-09T06:33:01.283Z,8.37
2018-09-09T06:35:06.742Z,9.50
2018-09-09T06:37:11.442Z,9.43
2018-09-09T06:39:15.886Z,9.97
2018-09-09T06:41:20.522Z,10.30
2018-09-09T06:43:25.358Z,8.80
2018-09-09T06:45:29.918Z,9.47
2018-09-09T06:47:34.578Z,9.00
2018-09-09T06:49:39.099Z,10.90
2018-09-09T06:51:43.774Z,9.80
2018-09-09T06:53:48.465Z,8.03
2018-09-09T06:55:53.459Z,8.33
2018-09-09T06:57:57.944Z,8.80
2018-09-09T07:00:03.202Z,6.30
2018-09-09T07:02:07.697Z,9.83
2018-09-09T07:04:13.163Z,11.13
2018-09-09T07:06:17.610Z,9.43
2018-09-09T07:08:22.748Z,5.70
2018-09-09T07:10:27.286Z,7.03
2018-09-09T07:12:32.081Z,10.80
2018-09-09T07:14:36.627Z,7.90
2018-09-09T07:16:41.066Z,10.83
2018-09-09T07:18:45.556Z,9.97
2018-09-09T07:20:50.121Z,10.77
2018-09-09T07:22:54.993Z,10.37
2018-09-09T07:24:59.632Z,9.97
2018-09-09T07:27:04.281Z,11.17
2018-09-09T07:29:08.789Z,9.33
2018-09-09T07:31:13.740Z,10.53
2018-09-09T07:33:18.830Z,10.73
2018-09-09T07:35:23.301Z,9.60
2018-09-09T07:37:27.912Z,9.60
2018-09-09T07:39:32.397Z,8.37
2018-09-09T07:41:37.603Z,7.43
2018-09-09T07:43:42.712Z,7.37
2018-09-09T07:45:47.875Z,10.63
2018-09-09T07:47:52.210Z,12.37
2018-09-09T07:49:56.715Z,9.67
2018-09-09T07:52:02.331Z,11.77
2018-09-09T07:54:07.022Z,7.70
2018-09-09T07:56:11.770Z,8.27
2018-09-09T07:58:16.515Z,9.10
2018-09-09T08:00:21.345Z,12.00
2018-09-09T08:02:26.327Z,9.67
2018-09-09T08:04:31.301Z,10.53
2018-09-09T08:06:36.910Z,9.63
2018-09-09T08:08:41.890Z,12.17
2018-09-09T08:10:46.441Z,10.17
2018-09-09T08:12:51.195Z,8.37
2018-09-09T08:14:55.660Z,10.50
2018-09-09T08:17:00.200Z,11.57
2018-09-09T08:19:05.348Z,11.00
2018-09-09T08:21:10.222Z,10.53
2018-09-09T08:23:16.560Z,10.47
2018-09-09T08:25:21.138Z,9.73
2018-09-09T08:27:25.814Z,11.87
2018-09-09T08:29:30.496Z,10.80
2018-09-09T08:31:36.504Z,11.50
2018-09-09T08:33:40.869Z,10.57
2018-09-09T08:35:45.406Z,10.33
2018-09-09T08:37:50.105Z,7.30
2018-09-09T08:39:54.698Z,10.47
2018-09-09T08:41:59.208Z,9.70
2018-09-09T08:44:03.671Z,10.63
2018-09-09T08:46:08.178Z,9.37
2018-09-09T08:48:12.858Z,10.33
2018-09-09T08:50:17.593Z,10.30
2018-09-09T08:52:22.082Z,9.50
2018-09-09T08:54:32.909Z,10.03
2018-09-09T08:56:37.590Z,10.07
2018-09-09T08:58:42.273Z,9.53
2018-09-09T09:00:46.855Z,10.17
2018-09-09T09:02:51.565Z,7.97
2018-09-09T09:04:56.526Z,10.03
2018-09-09T09:07:01.203Z,9.53
2018-09-09T09:09:08.973Z,9.57
2018-09-09T09:11:15.292Z,10.00
2018-09-09T09:13:19.706Z,8.17
2018-09-09T09:15:24.394Z,5.83
2018-09-09T09:17:29.714Z,7.87
2018-09-09T09:19:34.406Z,8.70
2018-09-09T09:21:38.821Z,5.10
2018-09-09T09:23:43.672Z,9.77
2018-09-09T09:25:53.058Z,9.70
2018-09-09T09:27:58.250Z,5.10
2018-09-09T09:30:03.282Z,9.20
2018-09-09T09:32:08.017Z,9.10
2018-09-09T09:34:13.139Z,6.87
2018-09-09T09:36:17.694Z,6.60
2018-09-09T09:38:33.905Z,5.40
2018-09-09T09:40:42.049Z,8.70
2018-09-09T09:42:47.501Z,4.57
2018-09-09T09:44:52.144Z,6.53
2018-09-09T09:46:56.969Z,6.80
2018-09-09T09:49:03.121Z,7.30
2018-09-09T09:51:07.635Z,6.47
2018-09-09T09:53:12.152Z,6.20
2018-09-09T09:55:17.038Z,7.33
2018-09-09T09:57:21.290Z,5.83
2018-09-09T09:59:25.504Z,6.37
2018-09-09T10:01:29.737Z,5.70
2018-09-09T10:03:33.933Z,5.43
2018-09-09T10:05:38.139Z,3.70
2018-09-09T10:07:42.331Z,4.07
2018-09-09T10:09:46.631Z,4.50
2018-09-09T10:11:50.852Z,4.03
2018-09-09T10:13:55.599Z,4.33
2018-09-09T10:15:59.831Z,4.80
2018-09-09T10:18:04.038Z,4.60
2018-09-09T10:20:08.303Z,4.03
2018-09-09T10:22:12.454Z,4.70
2018-09-09T10:24:16.737Z,3.70
2018-09-09T10:26:20.967Z,3.77
2018-09-09T10:28:25.143Z,3.77
2018-09-09T10:30:29.498Z,4.07
2018-09-09T10:32:33.728Z,2.83
2018-09-09T10:34:37.939Z,2.70
2018-09-09T10:36:42.546Z,2.70
2018-09-09T10:38:46.774Z,3.80
2018-09-09T10:40:51.017Z,3.60
2018-09-09T10:43:15.062Z,3.10
2018-09-09T10:45:19.576Z,3.40
2018-09-09T10:47:25.016Z,2.90
2018-09-09T10:49:30.038Z,2.70
2018-09-09T10:51:36.542Z,2.70
2018-09-09T10:53:40.803Z,2.70
2018-09-09T10:55:45.040Z,2.53
2018-09-09T10:57:49.707Z,3.23
2018-09-09T10:59:53.889Z,3.47
2018-09-09T11:01:58.104Z,3.40
2018-09-09T11:04:02.396Z,3.43
2018-09-09T11:06:06.614Z,3.30
2018-09-09T11:08:14.890Z,3.50
2018-09-09T11:10:19.187Z,3.23
2018-09-09T11:12:30.185Z,3.40
2018-09-09T11:14:34.528Z,2.47
2018-09-09T11:16:38.881Z,3.73
2018-09-09T11:18:43.102Z,3.57
2018-09-09T11:20:47.729Z,3.20
2018-09-09T11:22:51.942Z,4.40
2018-09-09T11:24:56.137Z,3.73
2018-09-09T11:27:00.403Z,4.00
2018-09-09T11:29:04.792Z,3.70
2018-09-09T11:31:09.068Z,3.30
2018-09-09T11:33:13.618Z,3.80
2018-09-09T11:35:18.090Z,3.10
2018-09-09T11:37:22.484Z,3.10
2018-09-09T11:39:26.888Z,2.73
2018-09-09T11:41:31.370Z,3.53
2018-09-09T11:43:35.672Z,3.50
2018-09-09T11:45:40.126Z,3.43
2018-09-09T11:47:44.488Z,2.77
2018-09-09T11:49:48.906Z,3.80
2018-09-09T11:51:53.261Z,2.57
2018-09-09T11:53:57.902Z,3.13
2018-09-09T11:56:18.632Z,3.43
2018-09-09T11:58:32.989Z,3.70
2018-09-09T12:00:38.126Z,3.67
2018-09-09T12:02:46.679Z,2.97
2018-09-09T12:05:03.581Z,3.40
2018-09-09T12:07:08.363Z,2.90
2018-09-09T12:09:20.211Z,3.47
2018-09-09T12:11:36.931Z,3.03
2018-09-09T12:13:53.003Z,4.03
2018-09-09T12:16:04.280Z,2.90
2018-09-09T12:18:23.815Z,2.03
2018-09-09T12:20:40.182Z,2.33
2018-09-09T12:22:45.191Z,2.60
2018-09-09T12:24:50.536Z,3.80
2018-09-09T12:27:07.869Z,2.83
2018-09-09T12:29:12.213Z,3.30
2018-09-09T12:31:16.520Z,2.83
2018-09-09T12:33:20.759Z,3.77
2018-09-09T12:35:25.240Z,2.50
2018-09-09T12:37:29.657Z,3.73
2018-09-09T12:39:33.938Z,2.83
2018-09-09T12:41:38.701Z,3.60
2018-09-09T12:43:47.998Z,3.53
2018-09-09T12:45:57.311Z,3.70
2018-09-09T12:48:07.807Z,2.93
2018-09-09T12:50:12.039Z,2.00
2018-09-09T12:52:16.302Z,2.10
2018-09-09T12:54:20.535Z,2.80
2018-09-09T12:56:24.812Z,3.13
2018-09-09T12:58:29.084Z,2.60
2018-09-09T13:00:33.388Z,2.33
2018-09-09T13:02:37.674Z,2.50
2018-09-09T13:04:41.931Z,3.00
2018-09-09T13:06:46.143Z,2.10
2018-09-09T13:08:50.602Z,2.77
2018-09-09T13:10:54.896Z,2.27
2018-09-09T13:13:04.094Z,2.00
2018-09-09T13:15:08.429Z,2.27
2018-09-09T13:17:12.600Z,2.27
2018-09-09T13:19:16.794Z,2.40
2018-09-09T13:21:21.055Z,2.40
2018-09-09T13:23:25.339Z,2.53
2018-09-09T13:25:29.567Z,2.60
2018-09-09T13:27:33.865Z,2.10
2018-09-09T13:29:38.076Z,2.73
2018-09-09T13:31:42.288Z,3.10
2018-09-09T13:33:46.497Z,2.20
2018-09-09T13:35:50.822Z,3.10
2018-09-09T13:37:55.136Z,2.77
2018-09-09T13:39:59.457Z,3.50
2018-09-09T13:42:03.616Z,3.70
2018-09-09T13:44:08.238Z,3.20
2018-09-09T13:46:12.452Z,3.40
2018-09-09T13:48:16.946Z,3.30
2018-09-09T13:50:22.404Z,3.13
2018-09-09T13:52:26.682Z,2.43
2018-09-09T13:54:31.413Z,2.97
2018-09-09T13:56:35.725Z,2.40
2018-09-09T13:58:40.003Z,3.07
2018-09-09T14:00:44.298Z,2.57
2018-09-09T14:02:48.553Z,2.77
2018-09-09T14:04:52.770Z,2.30
2018-09-09T14:06:56.980Z,2.00
2018-09-09T14:09:01.226Z,1.90
2018-09-09T14:11:05.608Z,1.97
2018-09-09T14:13:09.841Z,1.70
2018-09-09T14:15:14.129Z,2.00
2018-09-09T14:17:18.643Z,2.00
2018-09-09T14:19:22.851Z,1.80
2018-09-09T14:21:27.071Z,1.53
2018-09-09T14:23:31.375Z,1.97
2018-09-09T14:25:35.588Z,1.43
2018-09-09T14:27:39.832Z,2.30
2018-09-09T14:29:44.544Z,1.97
2018-09-09T14:31:48.859Z,1.50
2018-09-09T14:33:53.059Z,1.60
2018-09-09T14:35:57.436Z,1.63
2018-09-09T14:38:02.868Z,1.50
2018-09-09T14:40:07.228Z,1.50
2018-09-09T14:42:13.486Z,1.97
2018-09-09T14:44:17.731Z,1.50
2018-09-09T14:46:21.924Z,1.57
2018-09-09T14:48:26.204Z,1.70
2018-09-09T14:50:30.499Z,1.80
2018-09-09T14:52:34.748Z,1.70
2018-09-09T14:54:38.976Z,1.80
2018-09-09T14:56:43.475Z,1.30
2018-09-09T14:58:47.904Z,1.60
2018-09-09T15:00:52.320Z,1.60
2018-09-09T15:02:56.690Z,1.63
2018-09-09T15:05:00.974Z,1.80
2018-09-09T15:07:05.769Z,2.20
2018-09-09T15:09:11.485Z,1.83
2018-09-09T15:11:15.716Z,1.60
2018-09-09T15:13:19.958Z,2.20
2018-09-09T15:15:24.565Z,1.60
2018-09-09T15:17:28.898Z,1.43
2018-09-09T15:19:33.298Z,1.40
2018-09-09T15:21:37.500Z,2.10
2018-09-09T15:23:42.023Z,2.07
2018-09-09T15:25:46.455Z,1.60
2018-09-09T15:27:51.127Z,1.80
2018-09-09T15:29:55.531Z,2.87
2018-09-09T15:31:59.998Z,2.70
2018-09-09T15:34:04.280Z,2.07
2018-09-09T15:36:08.675Z,1.60
2018-09-09T15:38:13.028Z,1.90
2018-09-09T15:40:18.297Z,1.60
2018-09-09T15:42:22.535Z,2.00
2018-09-09T15:44:27.084Z,1.87
2018-09-09T15:46:31.441Z,1.77
2018-09-09T15:48:35.853Z,2.00
2018-09-09T15:50:40.440Z,1.80
2018-09-09T15:52:47.340Z,1.97
2018-09-09T15:54:52.030Z,2.00
2018-09-09T15:56:56.882Z,2.20
2018-09-09T15:59:01.358Z,2.10
2018-09-09T16:01:10.891Z,1.60
2018-09-09T16:03:15.393Z,2.63
2018-09-09T16:05:19.873Z,2.40
2018-09-09T16:07:24.864Z,1.93
2018-09-09T16:09:29.796Z,1.50
2018-09-09T16:11:34.307Z,1.83
2018-09-09T16:13:38.720Z,1.80
2018-09-09T16:15:43.304Z,1.93
2018-09-09T16:17:47.751Z,1.80
2018-09-09T16:19:52.330Z,1.83
2018-09-09T16:21:56.858Z,2.03
2018-09-09T16:24:01.302Z,1.90
2018-09-09T16:26:05.774Z,2.00
2018-09-09T16:28:10.164Z,1.27
2018-09-09T16:30:14.627Z,1.70
2018-09-09T16:32:19.150Z,1.80
2018-09-09T16:34:24.047Z,1.73
2018-09-09T16:36:28.508Z,1.43
2018-09-09T16:38:32.933Z,1.60
2018-09-09T16:40:37.589Z,1.37
2018-09-09T16:42:42.002Z,1.53
2018-09-09T16:44:46.759Z,1.27
2018-09-09T16:46:51.294Z,1.53
2018-09-09T16:48:56.047Z,1.20
2018-09-09T16:51:00.496Z,1.50
2018-09-09T16:53:05.134Z,1.40
2018-09-09T16:55:09.531Z,1.40
2018-09-09T16:57:14.121Z,1.43
2018-09-09T16:59:18.694Z,1.57
2018-09-09T17:01:23.312Z,1.30
2018-09-09T17:03:27.898Z,1.60
2018-09-09T17:05:32.429Z,1.47
2018-09-09T17:07:36.997Z,1.33
2018-09-09T17:09:41.498Z,1.40
2018-09-09T17:11:46.915Z,1.50
2018-09-09T17:13:51.935Z,1.60
2018-09-09T17:15:56.481Z,1.47
2018-09-09T17:18:01.008Z,1.50
2018-09-09T17:20:05.625Z,1.50
2018-09-09T17:22:10.356Z,1.40
2018-09-09T17:24:14.888Z,1.73
2018-09-09T17:26:19.614Z,1.30
2018-09-09T17:28:24.077Z,1.90
2018-09-09T17:30:28.674Z,1.63
2018-09-09T17:32:33.679Z,1.87
2018-09-09T17:34:38.189Z,1.50
2018-09-09T17:36:42.719Z,1.50
2018-09-09T17:38:48.233Z,1.40
2018-09-09T17:40:52.776Z,1.50
2018-09-09T17:42:57.312Z,1.40
2018-09-09T17:45:01.872Z,1.67
2018-09-09T17:47:12.523Z,1.63
2018-09-09T17:49:17.124Z,1.47
2018-09-09T17:51:22.246Z,1.60
2018-09-09T17:53:26.853Z,1.50
2018-09-09T17:55:31.420Z,1.53
2018-09-09T17:57:36.894Z,1.30
2018-09-09T17:59:41.592Z,1.40
2018-09-09T18:01:46.233Z,1.50
2018-09-09T18:03:50.928Z,1.37
2018-09-09T18:05:55.496Z,2.10
2018-09-09T18:08:00.036Z,1.40
2018-09-09T18:10:05.120Z,2.00
2018-09-09T18:12:09.689Z,1.50
2018-09-09T18:14:14.896Z,1.37
2018-09-09T18:16:20.450Z,1.80
2018-09-09T18:18:25.001Z,2.30
2018-09-09T18:20:30.245Z,2.33
2018-09-09T18:22:34.916Z,1.40
2018-09-09T18:24:40.610Z,1.70
2018-09-09T18:26:48.816Z,1.40
2018-09-09T18:28:53.870Z,1.50
2018-09-09T18:30:59.773Z,3.20
2018-09-09T18:33:06.593Z,1.67
2018-09-09T18:35:12.752Z,1.83
2018-09-09T18:37:18.702Z,4.73
2018-09-09T18:39:24.097Z,2.90
2018-09-09T18:41:29.804Z,6.57
2018-09-09T18:43:37.798Z,6.50
2018-09-09T18:45:43.819Z,5.20
2018-09-09T18:47:50.306Z,3.40
2018-09-09T18:49:56.462Z,5.83
2018-09-09T18:52:03.023Z,6.33
2018-09-09T18:54:08.879Z,6.00
2018-09-09T18:56:14.671Z,4.57
2018-09-09T18:58:20.587Z,2.53
2018-09-09T19:00:27.521Z,6.97
2018-09-09T19:02:33.819Z,3.43
2018-09-09T19:04:40.797Z,5.80
2018-09-09T19:06:47.157Z,10.37
2018-09-09T19:08:52.905Z,7.33
2018-09-09T19:11:00.483Z,6.50
2018-09-09T19:13:06.211Z,7.90
2018-09-09T19:15:13.510Z,7.00
2018-09-09T19:17:20.144Z,7.70
2018-09-09T19:19:26.885Z,6.97
2018-09-09T19:21:31.873Z,7.03
2018-09-09T19:23:37.029Z,8.13
2018-09-09T19:25:43.701Z,6.60
2018-09-09T19:27:48.734Z,7.83
2018-09-09T19:29:53.700Z,6.53
2018-09-09T19:31:59.420Z,7.10
2018-09-09T19:34:08.942Z,7.57
2018-09-09T19:36:15.716Z,6.83
2018-09-09T19:38:22.149Z,6.70
2018-09-09T19:40:27.213Z,7.90
2018-09-09T19:42:34.623Z,8.27
2018-09-09T19:44:39.394Z,7.27
2018-09-09T19:46:44.135Z,6.77
2018-09-09T19:48:49.888Z,7.07
2018-09-09T19:50:54.899Z,5.90
2018-09-09T19:53:01.225Z,6.10
2018-09-09T19:55:07.311Z,5.43
2018-09-09T19:57:11.972Z,4.77
2018-09-09T19:59:18.484Z,7.07
2018-09-09T20:01:23.845Z,6.60
2018-09-09T20:03:30.744Z,5.77
2018-09-09T20:05:35.722Z,5.23
2018-09-09T20:07:41.558Z,4.37
2018-09-09T20:09:48.711Z,5.80
2018-09-09T20:11:53.796Z,2.67
2018-09-09T20:13:58.785Z,5.27
2018-09-09T20:16:03.377Z,3.63
2018-09-09T20:18:08.424Z,3.57
2018-09-09T20:20:12.910Z,2.90
2018-09-09T20:22:18.448Z,2.73
2018-09-09T20:24:23.913Z,3.10
2018-09-09T20:26:28.716Z,3.40
2018-09-09T20:28:33.234Z,2.67
2018-09-09T20:30:37.765Z,3.80
2018-09-09T20:32:42.466Z,3.07
2018-09-09T20:34:46.984Z,2.50
2018-09-09T20:36:51.457Z,2.73
2018-09-09T20:38:56.472Z,4.80
2018-09-09T20:41:00.836Z,2.77
2018-09-09T20:43:05.395Z,2.00
2018-09-09T20:45:11.005Z,2.47
2018-09-09T20:47:15.340Z,3.00
2018-09-09T20:49:19.589Z,2.60
2018-09-09T20:51:23.795Z,3.43
2018-09-09T20:53:27.995Z,2.77
2018-09-09T20:55:36.936Z,2.70
2018-09-09T20:57:58.471Z,3.17
2018-09-09T21:00:06.363Z,3.17
2018-09-09T21:02:12.970Z,2.43
2018-09-09T21:04:18.175Z,3.47
2018-09-09T21:06:23.719Z,3.60
2018-09-09T21:08:28.276Z,3.30
2018-09-09T21:10:32.839Z,2.87
2018-09-09T21:12:37.350Z,4.10
2018-09-09T21:14:42.203Z,2.90
2018-09-09T21:16:46.842Z,2.40
2018-09-09T21:18:51.437Z,3.20
2018-09-09T21:20:56.111Z,3.33
2018-09-09T21:23:00.682Z,2.80
2018-09-09T21:25:05.362Z,2.50
2018-09-09T21:27:09.933Z,3.23
2018-09-09T21:29:15.056Z,2.73
2018-09-09T21:31:20.467Z,2.40
2018-09-09T21:33:25.035Z,2.97
2018-09-09T21:35:29.744Z,2.50
2018-09-09T21:37:40.688Z,2.73
2018-09-09T21:39:45.930Z,2.50
2018-09-09T21:41:51.836Z,2.73
2018-09-09T21:43:57.002Z,2.93
2018-09-09T21:46:01.767Z,2.40
2018-09-09T21:48:06.783Z,2.40
2018-09-09T21:50:11.414Z,2.10
2018-09-09T21:52:15.929Z,2.30
2018-09-09T21:54:20.442Z,2.73
2018-09-09T21:56:31.419Z,2.33
2018-09-09T21:58:36.187Z,2.40
2018-09-09T22:00:49.558Z,2.60
2018-09-09T22:02:54.035Z,2.27
2018-09-09T22:04:58.690Z,2.80
2018-09-09T22:07:03.317Z,2.50
2018-09-09T22:09:09.783Z,2.83
2018-09-09T22:11:15.182Z,2.57
2018-09-09T22:13:19.839Z,2.60
2018-09-09T22:15:24.568Z,2.70
2018-09-09T22:17:30.343Z,2.80
2018-09-09T22:19:35.568Z,2.60
2018-09-09T22:21:40.077Z,2.40
2018-09-09T22:23:45.091Z,2.90
2018-09-09T22:25:49.498Z,2.43
2018-09-09T22:27:54.028Z,2.87
2018-09-09T22:29:58.604Z,2.70
2018-09-09T22:32:03.175Z,2.07
2018-09-09T22:34:07.629Z,2.13
2018-09-09T22:36:12.091Z,2.13
2018-09-09T22:38:16.653Z,2.03
2018-09-09T22:40:21.280Z,2.43
2018-09-09T22:42:25.477Z,1.93
2018-09-09T22:44:30.068Z,2.10
2018-09-09T22:46:34.293Z,2.47
2018-09-09T22:48:38.473Z,2.20
2018-09-09T22:50:42.729Z,1.97
2018-09-09T22:52:46.938Z,2.47
2018-09-09T22:54:51.134Z,2.40
2018-09-09T22:56:55.359Z,2.87
2018-09-09T22:58:59.663Z,1.90
2018-09-09T23:01:03.835Z,2.17
2018-09-09T23:03:08.532Z,2.73
2018-09-09T23:05:12.792Z,2.57
2018-09-09T23:07:17.044Z,2.27
2018-09-09T23:09:21.300Z,2.00
2018-09-09T23:11:25.480Z,2.50
2018-09-09T23:13:29.756Z,1.80
2018-09-09T23:15:34.058Z,2.30
2018-09-09T23:17:38.343Z,2.10
2018-09-09T23:19:42.622Z,2.00
2018-09-09T23:21:46.823Z,2.10
2018-09-09T23:23:51.235Z,2.03
2018-09-09T23:25:55.405Z,2.20
2018-09-09T23:27:59.626Z,2.10
2018-09-09T23:30:03.878Z,1.87
2018-09-09T23:32:08.048Z,1.80
2018-09-09T23:34:12.351Z,2.73
2018-09-09T23:36:16.552Z,2.57
2018-09-09T23:38:20.800Z,2.10
2018-09-09T23:40:25.049Z,1.83
2018-09-09T23:42:29.307Z,2.10
2018-09-09T23:44:33.523Z,2.10
2018-09-09T23:46:38.131Z,1.80
2018-09-09T23:48:42.346Z,2.07
2018-09-09T23:50:46.546Z,2.30
2018-09-09T23:52:50.784Z,2.40
2018-09-09T23:54:55.015Z,2.20
2018-09-09T23:57:00.160Z,1.80
2018-09-09T23:59:04.346Z,2.10
